sensor_id;sensor_type;location;lat;lon;timestamp;P1;durP1;ratioP1;P2;durP2;ratioP2
75847;SDS011;73195;47.532;19.082;2023-12-14T00:00:19;7.97;;;3.85;;
75847;SDS011;73195;47.532;19.082;2023-12-14T00:02:46;8.73;;;3.97;;
75847;SDS011;73195;47.532;19.082;2023-12-14T00:05:13;7.78;;;4.10;;
75847;SDS011;73195;47.532;19.082;2023-12-14T00:07:41;7.00;;;3.50;;
75847;SDS011;73195;47.532;19.082;2023-12-14T00:10:08;8.13;;;4.37;;
75847;SDS011;73195;47.532;19.082;2023-12-14T00:12:37;6.37;;;3.78;;
75847;SDS011;73195;47.532;19.082;2023-12-14T00:15:05;7.93;;;4.15;;
75847;SDS011;73195;47.532;19.082;2023-12-14T00:17:33;7.97;;;3.87;;
75847;SDS011;73195;47.532;19.082;2023-12-14T00:20:00;7.37;;;3.78;;
75847;SDS011;73195;47.532;19.082;2023-12-14T00:22:28;8.32;;;4.00;;
75847;SDS011;73195;47.532;19.082;2023-12-14T00:24:56;8.50;;;3.85;;
75847;SDS011;73195;47.532;19.082;2023-12-14T00:27:24;7.43;;;3.70;;
75847;SDS011;73195;47.532;19.082;2023-12-14T00:29:51;7.70;;;3.75;;
75847;SDS011;73195;47.532;19.082;2023-12-14T00:32:18;8.27;;;3.80;;
75847;SDS011;73195;47.532;19.082;2023-12-14T00:34:45;8.35;;;4.37;;
75847;SDS011;73195;47.532;19.082;2023-12-14T00:37:12;9.75;;;4.45;;
75847;SDS011;73195;47.532;19.082;2023-12-14T00:39:40;9.13;;;4.45;;
75847;SDS011;73195;47.532;19.082;2023-12-14T00:42:08;9.70;;;4.45;;
75847;SDS011;73195;47.532;19.082;2023-12-14T00:44:35;9.57;;;4.60;;
75847;SDS011;73195;47.532;19.082;2023-12-14T00:47:03;9.63;;;4.72;;
75847;SDS011;73195;47.532;19.082;2023-12-14T00:49:29;10.60;;;4.95;;
75847;SDS011;73195;47.532;19.082;2023-12-14T00:51:56;11.80;;;5.32;;
75847;SDS011;73195;47.532;19.082;2023-12-14T00:54:24;11.43;;;5.12;;
75847;SDS011;73195;47.532;19.082;2023-12-14T00:56:51;8.88;;;4.10;;
75847;SDS011;73195;47.532;19.082;2023-12-14T00:59:19;9.65;;;4.60;;
75847;SDS011;73195;47.532;19.082;2023-12-14T01:01:46;9.30;;;4.32;;
75847;SDS011;73195;47.532;19.082;2023-12-14T01:04:13;7.78;;;3.75;;
75847;SDS011;73195;47.532;19.082;2023-12-14T01:06:40;9.95;;;5.00;;
75847;SDS011;73195;47.532;19.082;2023-12-14T01:09:08;10.68;;;4.85;;
75847;SDS011;73195;47.532;19.082;2023-12-14T01:11:35;8.98;;;4.57;;
75847;SDS011;73195;47.532;19.082;2023-12-14T01:14:02;9.60;;;4.80;;
75847;SDS011;73195;47.532;19.082;2023-12-14T01:16:31;10.43;;;4.95;;
75847;SDS011;73195;47.532;19.082;2023-12-14T01:18:58;9.52;;;4.60;;
75847;SDS011;73195;47.532;19.082;2023-12-14T01:21:25;8.40;;;4.03;;
75847;SDS011;73195;47.532;19.082;2023-12-14T01:23:53;12.68;;;4.62;;
75847;SDS011;73195;47.532;19.082;2023-12-14T01:26:20;9.65;;;4.90;;
75847;SDS011;73195;47.532;19.082;2023-12-14T01:28:46;10.35;;;4.68;;
75847;SDS011;73195;47.532;19.082;2023-12-14T01:31:14;10.85;;;4.68;;
75847;SDS011;73195;47.532;19.082;2023-12-14T01:33:42;10.82;;;4.78;;
75847;SDS011;73195;47.532;19.082;2023-12-14T01:36:11;12.50;;;5.28;;
75847;SDS011;73195;47.532;19.082;2023-12-14T01:38:38;10.52;;;5.20;;
75847;SDS011;73195;47.532;19.082;2023-12-14T01:41:05;11.95;;;5.53;;
75847;SDS011;73195;47.532;19.082;2023-12-14T01:43:33;12.80;;;5.37;;
75847;SDS011;73195;47.532;19.082;2023-12-14T01:46:00;12.63;;;5.65;;
75847;SDS011;73195;47.532;19.082;2023-12-14T01:48:27;13.20;;;5.57;;
75847;SDS011;73195;47.532;19.082;2023-12-14T01:50:55;14.02;;;6.10;;
75847;SDS011;73195;47.532;19.082;2023-12-14T01:53:23;12.37;;;5.55;;
75847;SDS011;73195;47.532;19.082;2023-12-14T01:55:50;15.00;;;6.62;;
75847;SDS011;73195;47.532;19.082;2023-12-14T01:58:17;14.98;;;6.37;;
75847;SDS011;73195;47.532;19.082;2023-12-14T02:00:45;14.00;;;6.55;;
75847;SDS011;73195;47.532;19.082;2023-12-14T02:03:16;17.52;;;7.05;;
75847;SDS011;73195;47.532;19.082;2023-12-14T02:05:43;18.37;;;7.35;;
75847;SDS011;73195;47.532;19.082;2023-12-14T02:08:11;16.55;;;6.43;;
75847;SDS011;73195;47.532;19.082;2023-12-14T02:10:39;15.50;;;6.55;;
75847;SDS011;73195;47.532;19.082;2023-12-14T02:13:06;16.17;;;6.87;;
75847;SDS011;73195;47.532;19.082;2023-12-14T02:15:32;20.67;;;7.30;;
75847;SDS011;73195;47.532;19.082;2023-12-14T02:18:00;19.95;;;8.18;;
75847;SDS011;73195;47.532;19.082;2023-12-14T02:20:27;18.90;;;8.25;;
75847;SDS011;73195;47.532;19.082;2023-12-14T02:22:55;18.75;;;7.50;;
75847;SDS011;73195;47.532;19.082;2023-12-14T02:25:23;18.10;;;7.40;;
75847;SDS011;73195;47.532;19.082;2023-12-14T02:27:50;17.65;;;7.37;;
75847;SDS011;73195;47.532;19.082;2023-12-14T02:30:18;17.65;;;7.40;;
75847;SDS011;73195;47.532;19.082;2023-12-14T02:32:45;17.12;;;7.37;;
75847;SDS011;73195;47.532;19.082;2023-12-14T02:35:12;18.08;;;8.00;;
75847;SDS011;73195;47.532;19.082;2023-12-14T02:37:39;18.08;;;7.68;;
75847;SDS011;73195;47.532;19.082;2023-12-14T02:40:09;17.60;;;7.05;;
75847;SDS011;73195;47.532;19.082;2023-12-14T02:42:36;17.37;;;7.53;;
75847;SDS011;73195;47.532;19.082;2023-12-14T02:45:03;18.35;;;7.32;;
75847;SDS011;73195;47.532;19.082;2023-12-14T02:47:31;17.90;;;7.32;;
75847;SDS011;73195;47.532;19.082;2023-12-14T02:49:58;18.80;;;8.52;;
75847;SDS011;73195;47.532;19.082;2023-12-14T02:52:25;17.48;;;7.03;;
75847;SDS011;73195;47.532;19.082;2023-12-14T02:54:52;16.02;;;7.47;;
75847;SDS011;73195;47.532;19.082;2023-12-14T02:57:21;18.55;;;7.30;;
75847;SDS011;73195;47.532;19.082;2023-12-14T02:59:48;17.30;;;7.32;;
75847;SDS011;73195;47.532;19.082;2023-12-14T03:02:15;15.80;;;6.90;;
75847;SDS011;73195;47.532;19.082;2023-12-14T03:04:42;16.58;;;7.75;;
75847;SDS011;73195;47.532;19.082;2023-12-14T03:07:09;16.65;;;7.15;;
75847;SDS011;73195;47.532;19.082;2023-12-14T03:09:38;17.40;;;6.90;;
75847;SDS011;73195;47.532;19.082;2023-12-14T03:12:06;19.92;;;9.07;;
75847;SDS011;73195;47.532;19.082;2023-12-14T03:14:35;18.37;;;7.62;;
75847;SDS011;73195;47.532;19.082;2023-12-14T03:17:03;19.15;;;7.43;;
75847;SDS011;73195;47.532;19.082;2023-12-14T03:19:30;19.52;;;7.72;;
75847;SDS011;73195;47.532;19.082;2023-12-14T03:21:57;18.30;;;7.50;;
75847;SDS011;73195;47.532;19.082;2023-12-14T03:24:24;18.20;;;7.68;;
75847;SDS011;73195;47.532;19.082;2023-12-14T03:26:52;19.17;;;7.55;;
75847;SDS011;73195;47.532;19.082;2023-12-14T03:29:18;18.40;;;7.68;;
75847;SDS011;73195;47.532;19.082;2023-12-14T03:31:48;19.00;;;7.90;;
75847;SDS011;73195;47.532;19.082;2023-12-14T03:34:16;16.30;;;7.68;;
75847;SDS011;73195;47.532;19.082;2023-12-14T03:36:43;19.55;;;7.97;;
75847;SDS011;73195;47.532;19.082;2023-12-14T03:39:12;19.37;;;8.20;;
75847;SDS011;73195;47.532;19.082;2023-12-14T03:41:41;19.33;;;8.20;;
75847;SDS011;73195;47.532;19.082;2023-12-14T03:44:08;18.92;;;7.75;;
75847;SDS011;73195;47.532;19.082;2023-12-14T03:46:36;17.42;;;7.37;;
75847;SDS011;73195;47.532;19.082;2023-12-14T03:49:04;19.30;;;7.35;;
75847;SDS011;73195;47.532;19.082;2023-12-14T03:51:31;19.12;;;8.00;;
75847;SDS011;73195;47.532;19.082;2023-12-14T03:53:58;19.87;;;7.75;;
75847;SDS011;73195;47.532;19.082;2023-12-14T03:56:26;19.17;;;7.57;;
75847;SDS011;73195;47.532;19.082;2023-12-14T03:58:52;19.50;;;8.20;;
75847;SDS011;73195;47.532;19.082;2023-12-14T04:01:20;20.10;;;8.57;;
75847;SDS011;73195;47.532;19.082;2023-12-14T04:03:48;21.65;;;7.90;;
75847;SDS011;73195;47.532;19.082;2023-12-14T04:06:16;18.70;;;7.80;;
75847;SDS011;73195;47.532;19.082;2023-12-14T04:08:43;21.10;;;8.40;;
75847;SDS011;73195;47.532;19.082;2023-12-14T04:11:10;18.10;;;8.30;;
75847;SDS011;73195;47.532;19.082;2023-12-14T04:13:37;19.90;;;8.05;;
75847;SDS011;73195;47.532;19.082;2023-12-14T04:16:05;18.73;;;8.00;;
75847;SDS011;73195;47.532;19.082;2023-12-14T04:18:33;19.55;;;7.90;;
75847;SDS011;73195;47.532;19.082;2023-12-14T04:21:01;17.87;;;8.00;;
75847;SDS011;73195;47.532;19.082;2023-12-14T04:23:29;21.65;;;8.43;;
75847;SDS011;73195;47.532;19.082;2023-12-14T04:25:56;17.77;;;7.75;;
75847;SDS011;73195;47.532;19.082;2023-12-14T04:28:23;19.80;;;8.43;;
75847;SDS011;73195;47.532;19.082;2023-12-14T04:30:50;21.67;;;8.25;;
75847;SDS011;73195;47.532;19.082;2023-12-14T04:33:17;19.30;;;8.40;;
75847;SDS011;73195;47.532;19.082;2023-12-14T04:35:45;18.25;;;7.55;;
75847;SDS011;73195;47.532;19.082;2023-12-14T04:38:12;16.55;;;7.15;;
75847;SDS011;73195;47.532;19.082;2023-12-14T04:40:40;15.45;;;7.32;;
75847;SDS011;73195;47.532;19.082;2023-12-14T04:43:07;18.95;;;7.87;;
75847;SDS011;73195;47.532;19.082;2023-12-14T04:45:34;18.62;;;7.78;;
75847;SDS011;73195;47.532;19.082;2023-12-14T04:48:02;20.95;;;8.60;;
75847;SDS011;73195;47.532;19.082;2023-12-14T04:50:29;20.70;;;8.30;;
75847;SDS011;73195;47.532;19.082;2023-12-14T04:52:56;20.70;;;8.32;;
75847;SDS011;73195;47.532;19.082;2023-12-14T04:55:23;19.30;;;8.20;;
75847;SDS011;73195;47.532;19.082;2023-12-14T04:57:51;23.67;;;9.07;;
75847;SDS011;73195;47.532;19.082;2023-12-14T05:00:18;23.70;;;9.68;;
75847;SDS011;73195;47.532;19.082;2023-12-14T05:02:47;21.15;;;9.05;;
75847;SDS011;73195;47.532;19.082;2023-12-14T05:05:14;24.48;;;9.52;;
75847;SDS011;73195;47.532;19.082;2023-12-14T05:07:42;23.35;;;10.00;;
75847;SDS011;73195;47.532;19.082;2023-12-14T05:10:09;25.98;;;10.15;;
75847;SDS011;73195;47.532;19.082;2023-12-14T05:12:36;26.73;;;10.32;;
75847;SDS011;73195;47.532;19.082;2023-12-14T05:15:06;25.00;;;9.90;;
75847;SDS011;73195;47.532;19.082;2023-12-14T05:17:33;23.60;;;9.20;;
75847;SDS011;73195;47.532;19.082;2023-12-14T05:20:02;26.10;;;10.23;;
75847;SDS011;73195;47.532;19.082;2023-12-14T05:22:30;30.23;;;10.48;;
75847;SDS011;73195;47.532;19.082;2023-12-14T05:24:58;24.33;;;9.68;;
75847;SDS011;73195;47.532;19.082;2023-12-14T05:27:25;24.58;;;10.00;;
75847;SDS011;73195;47.532;19.082;2023-12-14T05:29:52;25.20;;;9.93;;
75847;SDS011;73195;47.532;19.082;2023-12-14T05:32:21;24.00;;;10.20;;
75847;SDS011;73195;47.532;19.082;2023-12-14T05:34:48;24.50;;;9.68;;
75847;SDS011;73195;47.532;19.082;2023-12-14T05:37:15;26.95;;;10.77;;
75847;SDS011;73195;47.532;19.082;2023-12-14T05:39:42;24.42;;;9.68;;
75847;SDS011;73195;47.532;19.082;2023-12-14T05:42:11;27.17;;;10.98;;
75847;SDS011;73195;47.532;19.082;2023-12-14T05:44:38;25.88;;;10.32;;
75847;SDS011;73195;47.532;19.082;2023-12-14T05:47:05;26.12;;;10.38;;
75847;SDS011;73195;47.532;19.082;2023-12-14T05:49:33;28.85;;;11.52;;
75847;SDS011;73195;47.532;19.082;2023-12-14T05:52:00;27.30;;;10.65;;
75847;SDS011;73195;47.532;19.082;2023-12-14T05:54:27;27.37;;;10.75;;
75847;SDS011;73195;47.532;19.082;2023-12-14T05:56:55;28.10;;;11.55;;
75847;SDS011;73195;47.532;19.082;2023-12-14T05:59:22;27.05;;;10.32;;
75847;SDS011;73195;47.532;19.082;2023-12-14T06:01:50;29.45;;;11.48;;
75847;SDS011;73195;47.532;19.082;2023-12-14T06:04:23;30.08;;;11.70;;
75847;SDS011;73195;47.532;19.082;2023-12-14T06:06:52;27.80;;;10.80;;
75847;SDS011;73195;47.532;19.082;2023-12-14T06:09:19;29.30;;;11.20;;
75847;SDS011;73195;47.532;19.082;2023-12-14T06:11:50;28.10;;;11.12;;
75847;SDS011;73195;47.532;19.082;2023-12-14T06:14:17;30.17;;;12.57;;
75847;SDS011;73195;47.532;19.082;2023-12-14T06:16:44;26.58;;;10.82;;
75847;SDS011;73195;47.532;19.082;2023-12-14T06:19:12;24.95;;;10.85;;
75847;SDS011;73195;47.532;19.082;2023-12-14T06:21:39;25.77;;;10.65;;
75847;SDS011;73195;47.532;19.082;2023-12-14T06:24:08;27.83;;;11.73;;
75847;SDS011;73195;47.532;19.082;2023-12-14T06:26:35;30.20;;;11.65;;
75847;SDS011;73195;47.532;19.082;2023-12-14T06:29:07;25.17;;;10.50;;
75847;SDS011;73195;47.532;19.082;2023-12-14T06:31:34;26.48;;;11.10;;
75847;SDS011;73195;47.532;19.082;2023-12-14T06:34:01;24.60;;;11.40;;
75847;SDS011;73195;47.532;19.082;2023-12-14T06:36:29;26.60;;;11.45;;
75847;SDS011;73195;47.532;19.082;2023-12-14T06:38:56;27.35;;;10.98;;
75847;SDS011;73195;47.532;19.082;2023-12-14T06:41:25;24.73;;;10.57;;
75847;SDS011;73195;47.532;19.082;2023-12-14T06:43:53;27.45;;;11.12;;
75847;SDS011;73195;47.532;19.082;2023-12-14T06:46:21;27.48;;;11.20;;
75847;SDS011;73195;47.532;19.082;2023-12-14T06:48:48;24.95;;;10.77;;
75847;SDS011;73195;47.532;19.082;2023-12-14T06:51:15;26.75;;;11.27;;
75847;SDS011;73195;47.532;19.082;2023-12-14T06:53:43;25.98;;;10.77;;
75847;SDS011;73195;47.532;19.082;2023-12-14T06:56:11;26.55;;;11.27;;
75847;SDS011;73195;47.532;19.082;2023-12-14T06:58:40;28.40;;;11.85;;
75847;SDS011;73195;47.532;19.082;2023-12-14T07:01:08;27.55;;;11.98;;
75847;SDS011;73195;47.532;19.082;2023-12-14T07:03:39;25.73;;;10.85;;
75847;SDS011;73195;47.532;19.082;2023-12-14T07:06:06;26.25;;;11.27;;
75847;SDS011;73195;47.532;19.082;2023-12-14T07:08:34;25.85;;;11.40;;
75847;SDS011;73195;47.532;19.082;2023-12-14T07:11:01;23.95;;;10.68;;
75847;SDS011;73195;47.532;19.082;2023-12-14T07:13:28;25.17;;;10.95;;
75847;SDS011;73195;47.532;19.082;2023-12-14T07:15:56;25.83;;;10.80;;
75847;SDS011;73195;47.532;19.082;2023-12-14T07:18:24;24.63;;;10.85;;
75847;SDS011;73195;47.532;19.082;2023-12-14T07:20:51;22.00;;;10.45;;
75847;SDS011;73195;47.532;19.082;2023-12-14T07:23:18;22.77;;;9.75;;
75847;SDS011;73195;47.532;19.082;2023-12-14T07:25:46;25.30;;;11.52;;
75847;SDS011;73195;47.532;19.082;2023-12-14T07:28:12;22.80;;;10.10;;
75847;SDS011;73195;47.532;19.082;2023-12-14T07:30:39;26.02;;;10.73;;
75847;SDS011;73195;47.532;19.082;2023-12-14T07:33:08;25.08;;;10.10;;
75847;SDS011;73195;47.532;19.082;2023-12-14T07:35:35;25.40;;;10.52;;
75847;SDS011;73195;47.532;19.082;2023-12-14T07:38:02;23.05;;;9.82;;
75847;SDS011;73195;47.532;19.082;2023-12-14T07:40:29;25.37;;;10.75;;
75847;SDS011;73195;47.532;19.082;2023-12-14T07:42:57;23.77;;;10.65;;
75847;SDS011;73195;47.532;19.082;2023-12-14T07:45:24;26.00;;;10.75;;
75847;SDS011;73195;47.532;19.082;2023-12-14T07:47:51;23.65;;;10.05;;
75847;SDS011;73195;47.532;19.082;2023-12-14T07:50:20;23.95;;;10.75;;
75847;SDS011;73195;47.532;19.082;2023-12-14T07:52:47;27.52;;;11.73;;
75847;SDS011;73195;47.532;19.082;2023-12-14T07:55:14;23.92;;;10.65;;
75847;SDS011;73195;47.532;19.082;2023-12-14T07:57:42;23.20;;;10.70;;
75847;SDS011;73195;47.532;19.082;2023-12-14T08:00:10;25.85;;;11.82;;
75847;SDS011;73195;47.532;19.082;2023-12-14T08:02:38;25.98;;;10.95;;
75847;SDS011;73195;47.532;19.082;2023-12-14T08:05:05;26.42;;;10.45;;
75847;SDS011;73195;47.532;19.082;2023-12-14T08:07:34;26.52;;;11.50;;
75847;SDS011;73195;47.532;19.082;2023-12-14T08:10:01;25.73;;;11.32;;
75847;SDS011;73195;47.532;19.082;2023-12-14T08:12:28;25.42;;;11.02;;
75847;SDS011;73195;47.532;19.082;2023-12-14T08:14:55;24.45;;;11.25;;
75847;SDS011;73195;47.532;19.082;2023-12-14T08:17:22;26.40;;;11.45;;
75847;SDS011;73195;47.532;19.082;2023-12-14T08:19:49;24.42;;;11.18;;
75847;SDS011;73195;47.532;19.082;2023-12-14T08:22:16;24.65;;;10.90;;
75847;SDS011;73195;47.532;19.082;2023-12-14T08:24:45;23.87;;;10.75;;
75847;SDS011;73195;47.532;19.082;2023-12-14T08:27:12;25.83;;;11.45;;
75847;SDS011;73195;47.532;19.082;2023-12-14T08:29:39;24.48;;;10.85;;
75847;SDS011;73195;47.532;19.082;2023-12-14T08:32:07;25.30;;;11.23;;
75847;SDS011;73195;47.532;19.082;2023-12-14T08:34:34;23.98;;;11.10;;
75847;SDS011;73195;47.532;19.082;2023-12-14T08:37:01;23.45;;;10.98;;
75847;SDS011;73195;47.532;19.082;2023-12-14T08:39:29;22.48;;;10.90;;
75847;SDS011;73195;47.532;19.082;2023-12-14T08:41:57;24.98;;;12.13;;
75847;SDS011;73195;47.532;19.082;2023-12-14T08:44:24;23.15;;;10.63;;
75847;SDS011;73195;47.532;19.082;2023-12-14T08:46:52;23.55;;;10.65;;
75847;SDS011;73195;47.532;19.082;2023-12-14T08:49:19;24.25;;;11.77;;
75847;SDS011;73195;47.532;19.082;2023-12-14T08:51:47;23.90;;;11.05;;
75847;SDS011;73195;47.532;19.082;2023-12-14T08:54:14;24.65;;;11.45;;
75847;SDS011;73195;47.532;19.082;2023-12-14T08:56:42;23.70;;;10.85;;
75847;SDS011;73195;47.532;19.082;2023-12-14T08:59:11;22.83;;;10.75;;
75847;SDS011;73195;47.532;19.082;2023-12-14T09:01:38;22.70;;;11.10;;
75847;SDS011;73195;47.532;19.082;2023-12-14T09:04:06;20.73;;;10.00;;
75847;SDS011;73195;47.532;19.082;2023-12-14T09:06:32;23.35;;;10.75;;
75847;SDS011;73195;47.532;19.082;2023-12-14T09:08:59;20.80;;;10.20;;
75847;SDS011;73195;47.532;19.082;2023-12-14T09:11:27;21.50;;;10.38;;
75847;SDS011;73195;47.532;19.082;2023-12-14T09:13:53;22.00;;;9.98;;
75847;SDS011;73195;47.532;19.082;2023-12-14T09:16:22;19.48;;;10.15;;
75847;SDS011;73195;47.532;19.082;2023-12-14T09:18:49;20.95;;;10.13;;
75847;SDS011;73195;47.532;19.082;2023-12-14T09:21:16;24.77;;;10.95;;
75847;SDS011;73195;47.532;19.082;2023-12-14T09:23:43;23.38;;;10.05;;
75847;SDS011;73195;47.532;19.082;2023-12-14T09:26:10;21.70;;;9.85;;
75847;SDS011;73195;47.532;19.082;2023-12-14T09:28:37;21.37;;;9.82;;
75847;SDS011;73195;47.532;19.082;2023-12-14T09:31:04;25.42;;;9.75;;
75847;SDS011;73195;47.532;19.082;2023-12-14T09:33:32;21.12;;;10.00;;
75847;SDS011;73195;47.532;19.082;2023-12-14T09:35:59;20.08;;;10.07;;
75847;SDS011;73195;47.532;19.082;2023-12-14T09:38:26;22.77;;;10.30;;
75847;SDS011;73195;47.532;19.082;2023-12-14T09:40:54;22.13;;;9.75;;
75847;SDS011;73195;47.532;19.082;2023-12-14T09:43:20;21.87;;;10.23;;
75847;SDS011;73195;47.532;19.082;2023-12-14T09:45:49;23.12;;;10.13;;
75847;SDS011;73195;47.532;19.082;2023-12-14T09:48:16;21.67;;;10.02;;
75847;SDS011;73195;47.532;19.082;2023-12-14T09:50:45;21.35;;;10.57;;
75847;SDS011;73195;47.532;19.082;2023-12-14T09:53:13;20.17;;;9.98;;
75847;SDS011;73195;47.532;19.082;2023-12-14T09:55:40;20.62;;;10.07;;
75847;SDS011;73195;47.532;19.082;2023-12-14T09:58:07;21.05;;;9.80;;
75847;SDS011;73195;47.532;19.082;2023-12-14T10:00:36;18.62;;;9.50;;
75847;SDS011;73195;47.532;19.082;2023-12-14T10:03:18;20.37;;;9.70;;
75847;SDS011;73195;47.532;19.082;2023-12-14T10:05:50;19.98;;;9.73;;
75847;SDS011;73195;47.532;19.082;2023-12-14T10:08:17;19.67;;;10.10;;
75847;SDS011;73195;47.532;19.082;2023-12-14T10:10:46;19.85;;;9.48;;
75847;SDS011;73195;47.532;19.082;2023-12-14T10:13:14;20.45;;;8.90;;
75847;SDS011;73195;47.532;19.082;2023-12-14T10:15:41;18.10;;;9.30;;
75847;SDS011;73195;47.532;19.082;2023-12-14T10:18:08;20.60;;;9.57;;
75847;SDS011;73195;47.532;19.082;2023-12-14T10:20:36;18.62;;;9.35;;
75847;SDS011;73195;47.532;19.082;2023-12-14T10:23:06;19.35;;;9.32;;
75847;SDS011;73195;47.532;19.082;2023-12-14T10:25:35;19.23;;;9.27;;
75847;SDS011;73195;47.532;19.082;2023-12-14T10:28:02;18.83;;;9.23;;
75847;SDS011;73195;47.532;19.082;2023-12-14T10:30:29;16.75;;;8.32;;
75847;SDS011;73195;47.532;19.082;2023-12-14T10:32:57;16.48;;;8.20;;
75847;SDS011;73195;47.532;19.082;2023-12-14T10:35:24;16.77;;;8.75;;
75847;SDS011;73195;47.532;19.082;2023-12-14T10:37:52;19.90;;;8.88;;
75847;SDS011;73195;47.532;19.082;2023-12-14T10:40:21;20.62;;;8.75;;
75847;SDS011;73195;47.532;19.082;2023-12-14T10:42:49;17.52;;;8.95;;
75847;SDS011;73195;47.532;19.082;2023-12-14T10:45:17;17.75;;;8.55;;
75847;SDS011;73195;47.532;19.082;2023-12-14T10:47:45;17.27;;;8.50;;
75847;SDS011;73195;47.532;19.082;2023-12-14T10:50:14;18.48;;;8.75;;
75847;SDS011;73195;47.532;19.082;2023-12-14T10:52:42;16.83;;;9.07;;
75847;SDS011;73195;47.532;19.082;2023-12-14T10:55:11;17.08;;;8.63;;
75847;SDS011;73195;47.532;19.082;2023-12-14T10:57:52;17.10;;;8.93;;
75847;SDS011;73195;47.532;19.082;2023-12-14T11:00:19;19.77;;;9.90;;
75847;SDS011;73195;47.532;19.082;2023-12-14T11:02:46;18.87;;;9.50;;
75847;SDS011;73195;47.532;19.082;2023-12-14T11:05:14;18.95;;;9.27;;
75847;SDS011;73195;47.532;19.082;2023-12-14T11:07:48;18.90;;;9.02;;
75847;SDS011;73195;47.532;19.082;2023-12-14T11:10:19;18.02;;;9.45;;
75847;SDS011;73195;47.532;19.082;2023-12-14T11:12:50;20.58;;;9.88;;
75847;SDS011;73195;47.532;19.082;2023-12-14T11:15:19;20.80;;;9.95;;
75847;SDS011;73195;47.532;19.082;2023-12-14T11:20:47;19.98;;;9.60;;
75847;SDS011;73195;47.532;19.082;2023-12-14T11:23:15;17.27;;;9.30;;
75847;SDS011;73195;47.532;19.082;2023-12-14T11:25:43;20.05;;;10.10;;
75847;SDS011;73195;47.532;19.082;2023-12-14T11:28:10;18.83;;;9.75;;
75847;SDS011;73195;47.532;19.082;2023-12-14T11:30:39;17.90;;;9.75;;
75847;SDS011;73195;47.532;19.082;2023-12-14T11:33:06;21.50;;;9.80;;
75847;SDS011;73195;47.532;19.082;2023-12-14T11:35:34;20.12;;;10.18;;
75847;SDS011;73195;47.532;19.082;2023-12-14T11:38:01;21.12;;;10.15;;
75847;SDS011;73195;47.532;19.082;2023-12-14T11:40:35;18.90;;;9.77;;
75847;SDS011;73195;47.532;19.082;2023-12-14T11:43:03;20.27;;;9.55;;
75847;SDS011;73195;47.532;19.082;2023-12-14T11:45:32;20.95;;;10.27;;
75847;SDS011;73195;47.532;19.082;2023-12-14T11:48:00;19.73;;;9.60;;
75847;SDS011;73195;47.532;19.082;2023-12-14T11:50:30;19.23;;;9.60;;
75847;SDS011;73195;47.532;19.082;2023-12-14T11:52:57;20.23;;;9.35;;
75847;SDS011;73195;47.532;19.082;2023-12-14T11:55:24;20.17;;;9.95;;
75847;SDS011;73195;47.532;19.082;2023-12-14T11:57:51;19.80;;;10.32;;
75847;SDS011;73195;47.532;19.082;2023-12-14T12:00:21;18.00;;;9.65;;
75847;SDS011;73195;47.532;19.082;2023-12-14T12:02:50;18.58;;;9.02;;
75847;SDS011;73195;47.532;19.082;2023-12-14T12:05:18;20.60;;;9.73;;
75847;SDS011;73195;47.532;19.082;2023-12-14T12:07:45;18.92;;;9.57;;
75847;SDS011;73195;47.532;19.082;2023-12-14T12:10:12;20.17;;;9.82;;
75847;SDS011;73195;47.532;19.082;2023-12-14T12:12:39;20.45;;;10.05;;
75847;SDS011;73195;47.532;19.082;2023-12-14T12:15:07;18.00;;;8.95;;
75847;SDS011;73195;47.532;19.082;2023-12-14T12:17:34;21.55;;;10.02;;
75847;SDS011;73195;47.532;19.082;2023-12-14T12:20:04;20.90;;;10.05;;
75847;SDS011;73195;47.532;19.082;2023-12-14T12:22:32;18.30;;;8.98;;
75847;SDS011;73195;47.532;19.082;2023-12-14T12:25:00;19.40;;;9.27;;
75847;SDS011;73195;47.532;19.082;2023-12-14T12:27:27;17.45;;;9.20;;
75847;SDS011;73195;47.532;19.082;2023-12-14T12:29:55;19.90;;;9.77;;
75847;SDS011;73195;47.532;19.082;2023-12-14T12:32:22;21.27;;;9.45;;
75847;SDS011;73195;47.532;19.082;2023-12-14T12:34:49;17.70;;;8.77;;
75847;SDS011;73195;47.532;19.082;2023-12-14T12:37:18;19.77;;;9.40;;
75847;SDS011;73195;47.532;19.082;2023-12-14T12:39:46;20.48;;;9.68;;
75847;SDS011;73195;47.532;19.082;2023-12-14T12:42:14;17.60;;;8.35;;
75847;SDS011;73195;47.532;19.082;2023-12-14T12:44:41;17.12;;;8.80;;
75847;SDS011;73195;47.532;19.082;2023-12-14T12:47:08;17.37;;;9.35;;
75847;SDS011;73195;47.532;19.082;2023-12-14T12:49:35;17.80;;;9.10;;
75847;SDS011;73195;47.532;19.082;2023-12-14T12:52:02;18.17;;;9.18;;
75847;SDS011;73195;47.532;19.082;2023-12-14T12:54:30;17.67;;;9.55;;
75847;SDS011;73195;47.532;19.082;2023-12-14T12:56:59;18.70;;;8.98;;
75847;SDS011;73195;47.532;19.082;2023-12-14T12:59:26;18.52;;;8.88;;
75847;SDS011;73195;47.532;19.082;2023-12-14T13:01:53;19.02;;;9.05;;
75847;SDS011;73195;47.532;19.082;2023-12-14T13:04:20;18.25;;;9.15;;
75847;SDS011;73195;47.532;19.082;2023-12-14T13:06:48;17.40;;;9.15;;
75847;SDS011;73195;47.532;19.082;2023-12-14T13:09:15;21.10;;;9.40;;
75847;SDS011;73195;47.532;19.082;2023-12-14T13:11:42;19.98;;;9.55;;
75847;SDS011;73195;47.532;19.082;2023-12-14T13:14:11;16.27;;;8.55;;
75847;SDS011;73195;47.532;19.082;2023-12-14T13:16:40;16.25;;;8.73;;
75847;SDS011;73195;47.532;19.082;2023-12-14T13:19:08;18.08;;;8.65;;
75847;SDS011;73195;47.532;19.082;2023-12-14T13:21:35;18.75;;;8.80;;
75847;SDS011;73195;47.532;19.082;2023-12-14T13:24:02;17.23;;;9.23;;
75847;SDS011;73195;47.532;19.082;2023-12-14T13:26:29;16.12;;;8.30;;
75847;SDS011;73195;47.532;19.082;2023-12-14T13:28:56;15.82;;;8.30;;
75847;SDS011;73195;47.532;19.082;2023-12-14T13:31:25;22.80;;;9.18;;
75847;SDS011;73195;47.532;19.082;2023-12-14T13:33:52;18.12;;;8.57;;
75847;SDS011;73195;47.532;19.082;2023-12-14T13:36:19;17.42;;;8.18;;
75847;SDS011;73195;47.532;19.082;2023-12-14T13:38:46;20.83;;;8.70;;
75847;SDS011;73195;47.532;19.082;2023-12-14T13:41:14;15.88;;;8.90;;
75847;SDS011;73195;47.532;19.082;2023-12-14T13:43:40;16.57;;;8.50;;
75847;SDS011;73195;47.532;19.082;2023-12-14T13:46:08;16.23;;;8.63;;
75847;SDS011;73195;47.532;19.082;2023-12-14T13:48:37;17.12;;;8.35;;
75847;SDS011;73195;47.532;19.082;2023-12-14T13:51:04;14.68;;;7.68;;
75847;SDS011;73195;47.532;19.082;2023-12-14T13:53:33;16.00;;;8.43;;
75847;SDS011;73195;47.532;19.082;2023-12-14T13:56:00;15.98;;;8.30;;
75847;SDS011;73195;47.532;19.082;2023-12-14T13:58:28;17.40;;;8.18;;
75847;SDS011;73195;47.532;19.082;2023-12-14T14:00:55;14.65;;;7.72;;
75847;SDS011;73195;47.532;19.082;2023-12-14T14:03:22;17.10;;;8.18;;
75847;SDS011;73195;47.532;19.082;2023-12-14T14:05:53;14.13;;;7.55;;
75847;SDS011;73195;47.532;19.082;2023-12-14T14:08:21;15.73;;;7.73;;
75847;SDS011;73195;47.532;19.082;2023-12-14T14:10:48;14.25;;;7.05;;
75847;SDS011;73195;47.532;19.082;2023-12-14T14:13:15;17.27;;;8.35;;
75847;SDS011;73195;47.532;19.082;2023-12-14T14:15:42;13.02;;;7.43;;
75847;SDS011;73195;47.532;19.082;2023-12-14T14:18:09;12.75;;;7.30;;
75847;SDS011;73195;47.532;19.082;2023-12-14T14:20:36;14.60;;;7.45;;
75847;SDS011;73195;47.532;19.082;2023-12-14T14:23:05;13.85;;;7.35;;